createdAt,value
2022-12-17T00:01:45.319Z,95.60
2022-12-17T00:05:33.343Z,99.00
2022-12-17T00:08:18.546Z,105.17
2022-12-17T00:11:03.369Z,95.97
2022-12-17T00:13:48.439Z,93.83
2022-12-17T00:16:34.344Z,95.57
2022-12-17T00:19:19.353Z,90.27
2022-12-17T00:22:04.166Z,88.33
2022-12-17T00:24:49.042Z,87.17
2022-12-17T00:27:33.884Z,90.07
2022-12-17T00:30:18.709Z,93.07
2022-12-17T00:33:03.188Z,90.77
2022-12-17T00:35:47.756Z,84.17
2022-12-17T00:38:36.742Z,94.57
2022-12-17T00:41:22.048Z,89.63
2022-12-17T00:44:06.906Z,93.43
2022-12-17T00:46:51.776Z,91.97
2022-12-17T00:49:36.600Z,90.23
2022-12-17T00:52:22.624Z,93.50
2022-12-17T00:55:07.440Z,89.13
2022-12-17T00:57:52.359Z,90.00
2022-12-17T01:00:37.263Z,85.03
2022-12-17T01:03:29.607Z,81.70
2022-12-17T01:08:33.233Z,93.60
2022-12-17T01:11:20.272Z,90.67
2022-12-17T01:14:05.632Z,85.27
2022-12-17T01:16:51.060Z,85.93
2022-12-17T01:19:36.475Z,91.17
2022-12-17T01:22:21.382Z,89.37
2022-12-17T01:25:05.903Z,99.50
2022-12-17T01:27:50.797Z,93.13
2022-12-17T01:30:35.534Z,92.60
2022-12-17T01:33:25.961Z,101.63
2022-12-17T01:36:15.264Z,95.23
2022-12-17T01:39:00.391Z,103.47
2022-12-17T01:41:45.649Z,108.93
2022-12-17T01:46:03.145Z,97.03
2022-12-17T01:48:59.547Z,92.67
2022-12-17T01:51:45.494Z,102.37
2022-12-17T01:54:32.002Z,96.50
2022-12-17T01:57:18.355Z,100.87
2022-12-17T02:00:19.507Z,96.40
2022-12-17T02:03:04.562Z,95.00
2022-12-17T02:08:13.139Z,93.97
2022-12-17T02:11:21.016Z,90.57
2022-12-17T02:14:41.922Z,92.87
2022-12-17T02:17:35.359Z,88.90
2022-12-17T02:20:52.070Z,92.90
2022-12-17T02:24:15.050Z,93.13
2022-12-17T02:27:11.575Z,87.70
2022-12-17T02:30:09.037Z,80.83
2022-12-17T02:32:58.973Z,94.27
2022-12-17T02:35:52.406Z,84.53
2022-12-17T02:38:44.533Z,93.17
2022-12-17T02:42:01.306Z,83.37
2022-12-17T02:44:47.515Z,94.27
2022-12-17T02:47:33.323Z,84.73
2022-12-17T02:50:18.166Z,86.93
2022-12-17T02:53:06.049Z,90.13
2022-12-17T02:55:53.074Z,95.13
2022-12-17T02:58:38.060Z,94.70
2022-12-17T03:01:23.148Z,87.43
2022-12-17T03:04:07.923Z,87.37
2022-12-17T03:06:52.766Z,87.97
2022-12-17T03:09:37.348Z,94.73
2022-12-17T03:12:22.274Z,98.60
2022-12-17T03:15:07.226Z,92.90
2022-12-17T03:17:51.758Z,92.17
2022-12-17T03:20:36.640Z,90.53
2022-12-17T03:23:25.099Z,94.87
2022-12-17T03:26:10.455Z,88.47
2022-12-17T03:28:55.742Z,81.90
2022-12-17T03:31:40.681Z,80.73
2022-12-17T03:34:25.737Z,91.73
2022-12-17T03:37:10.613Z,85.23
2022-12-17T03:39:55.366Z,80.23
2022-12-17T03:42:40.391Z,75.73
2022-12-17T03:45:25.752Z,81.10
2022-12-17T03:48:20.601Z,88.20
2022-12-17T03:51:05.467Z,87.20
2022-12-17T03:53:50.301Z,81.90
2022-12-17T03:56:35.114Z,80.53
2022-12-17T03:59:20.054Z,82.10
2022-12-17T04:02:04.951Z,83.07
2022-12-17T04:04:49.737Z,76.50
2022-12-17T04:07:34.555Z,83.13
2022-12-17T04:10:19.441Z,79.63
2022-12-17T04:13:04.695Z,69.03
2022-12-17T04:15:49.656Z,49.47
2022-12-17T04:19:37.634Z,46.53
2022-12-17T04:22:22.541Z,55.33
2022-12-17T04:25:07.301Z,58.10
2022-12-17T04:27:52.195Z,64.50
2022-12-17T04:30:36.933Z,67.83
2022-12-17T04:33:21.569Z,58.30
2022-12-17T04:36:06.490Z,68.93
2022-12-17T04:38:51.322Z,67.93
2022-12-17T04:41:36.321Z,63.87
2022-12-17T04:44:21.053Z,58.73
2022-12-17T04:47:06.054Z,64.70
2022-12-17T04:49:50.966Z,63.57
2022-12-17T04:52:35.754Z,73.13
2022-12-17T04:55:20.768Z,67.93
2022-12-17T04:58:05.636Z,65.53
2022-12-17T05:00:50.497Z,70.47
2022-12-17T05:03:36.040Z,61.67
2022-12-17T05:06:21.249Z,60.87
2022-12-17T05:09:06.117Z,62.57
2022-12-17T05:11:50.930Z,58.60
2022-12-17T05:14:36.378Z,64.37
2022-12-17T05:17:21.273Z,59.40
2022-12-17T05:20:06.162Z,70.27
2022-12-17T05:22:53.534Z,60.97
2022-12-17T05:25:38.388Z,64.20
2022-12-17T05:28:23.375Z,61.13
2022-12-17T05:31:13.151Z,83.43
2022-12-17T05:33:58.287Z,68.57
2022-12-17T05:36:43.774Z,58.77
2022-12-17T05:39:28.641Z,63.03
2022-12-17T05:42:13.526Z,65.23
2022-12-17T05:44:58.427Z,74.13
2022-12-17T05:47:43.260Z,63.87
2022-12-17T05:50:28.031Z,66.50
2022-12-17T05:53:19.409Z,70.40
2022-12-17T05:56:10.880Z,65.37
2022-12-17T05:58:56.683Z,71.20
2022-12-17T06:01:42.836Z,65.63
2022-12-17T06:04:28.522Z,68.37
2022-12-17T06:07:13.441Z,60.10
2022-12-17T06:09:58.316Z,64.13
2022-12-17T06:12:43.236Z,63.33
2022-12-17T06:15:28.079Z,65.10
2022-12-17T06:18:16.969Z,62.37
2022-12-17T06:21:02.739Z,56.43
2022-12-17T06:23:47.546Z,61.13
2022-12-17T06:26:32.337Z,60.37
2022-12-17T06:29:17.077Z,62.80
2022-12-17T06:32:01.995Z,61.60
2022-12-17T06:34:46.946Z,62.03
2022-12-17T06:37:31.800Z,68.33
2022-12-17T06:40:16.785Z,65.03
2022-12-17T06:43:14.294Z,67.53
2022-12-17T06:45:59.266Z,70.43
2022-12-17T06:48:44.037Z,67.73
2022-12-17T06:51:28.978Z,69.17
2022-12-17T06:54:13.753Z,64.70
2022-12-17T06:56:58.627Z,64.23
2022-12-17T06:59:43.616Z,62.70
2022-12-17T07:02:31.606Z,64.50
2022-12-17T07:05:16.489Z,61.47
2022-12-17T07:08:01.352Z,60.83
2022-12-17T07:10:46.331Z,61.73
2022-12-17T07:13:31.045Z,64.90
2022-12-17T07:16:16.032Z,71.43
2022-12-17T07:19:00.935Z,75.83
2022-12-17T07:24:20.058Z,64.40
2022-12-17T07:27:04.970Z,70.07
2022-12-17T07:29:49.827Z,69.43
2022-12-17T07:32:34.690Z,62.07
2022-12-17T07:35:19.626Z,63.70
2022-12-17T07:38:04.559Z,84.50
2022-12-17T07:40:49.403Z,107.97
2022-12-17T07:43:34.701Z,111.77
2022-12-17T07:46:20.230Z,97.10
2022-12-17T07:49:05.077Z,83.90
2022-12-17T07:51:49.936Z,82.07
2022-12-17T07:54:34.888Z,74.33
2022-12-17T07:57:19.856Z,59.80
2022-12-17T08:00:04.632Z,59.43
2022-12-17T08:02:49.707Z,54.43
2022-12-17T08:05:34.425Z,58.93
2022-12-17T08:08:30.789Z,62.57
2022-12-17T08:11:15.689Z,54.07
2022-12-17T08:14:00.692Z,53.83
2022-12-17T08:16:45.282Z,50.47
2022-12-17T08:19:30.870Z,54.07
2022-12-17T08:22:15.684Z,55.90
2022-12-17T08:26:15.741Z,55.83
2022-12-17T08:29:00.650Z,54.57
2022-12-17T08:31:45.505Z,53.00
2022-12-17T08:34:33.334Z,59.10
2022-12-17T08:37:18.136Z,50.87
2022-12-17T08:40:03.086Z,51.07
2022-12-17T08:42:47.916Z,46.37
2022-12-17T08:45:33.028Z,47.60
2022-12-17T08:48:24.484Z,43.87
2022-12-17T08:51:09.344Z,50.13
2022-12-17T08:53:54.357Z,46.70
2022-12-17T08:56:39.302Z,43.87
2022-12-17T08:59:24.083Z,43.13
2022-12-17T09:02:09.214Z,45.43
2022-12-17T09:04:53.937Z,50.73
2022-12-17T09:07:38.844Z,42.20
2022-12-17T09:10:24.196Z,41.87
2022-12-17T09:15:43.768Z,47.37
2022-12-17T09:18:28.435Z,47.03
2022-12-17T09:21:14.356Z,47.63
2022-12-17T09:23:59.360Z,50.53
2022-12-17T09:26:44.276Z,48.03
2022-12-17T09:29:29.207Z,46.43
2022-12-17T09:32:13.989Z,48.47
2022-12-17T09:34:58.874Z,44.10
2022-12-17T09:37:43.691Z,45.07
2022-12-17T09:40:39.103Z,54.80
2022-12-17T09:43:50.083Z,43.57
2022-12-17T09:46:53.991Z,43.70
2022-12-17T09:49:44.004Z,43.73
2022-12-17T09:53:02.304Z,45.50
2022-12-17T09:56:03.702Z,51.77
2022-12-17T09:58:49.120Z,48.53
2022-12-17T10:01:42.118Z,46.43
2022-12-17T10:04:52.531Z,60.00
2022-12-17T10:07:42.468Z,59.23
2022-12-17T10:13:03.711Z,51.70
2022-12-17T10:15:48.542Z,55.23
2022-12-17T10:18:37.547Z,57.70
2022-12-17T10:21:29.033Z,53.63
2022-12-17T10:24:28.755Z,57.63
2022-12-17T10:27:14.013Z,54.57
2022-12-17T10:30:00.981Z,49.10
2022-12-17T10:32:46.818Z,40.57
2022-12-17T10:35:55.442Z,37.37
2022-12-17T10:38:49.310Z,42.87
2022-12-17T10:41:48.308Z,38.93
2022-12-17T10:44:55.516Z,37.90
2022-12-17T10:47:44.097Z,40.10
2022-12-17T10:50:39.688Z,33.53
2022-12-17T10:53:40.417Z,32.20
2022-12-17T10:56:37.190Z,31.83
2022-12-17T10:59:31.105Z,34.10
2022-12-17T11:02:17.158Z,29.77
2022-12-17T11:05:10.859Z,29.83
2022-12-17T11:08:01.306Z,28.43
2022-12-17T11:10:51.469Z,25.80
2022-12-17T11:14:23.189Z,30.83
2022-12-17T11:17:16.075Z,25.97
2022-12-17T11:20:20.436Z,26.50
2022-12-17T11:23:17.935Z,30.83
2022-12-17T11:26:30.098Z,42.40
2022-12-17T11:29:17.312Z,48.23
2022-12-17T11:34:07.420Z,50.23
2022-12-17T11:37:20.006Z,50.10
2022-12-17T11:43:24.761Z,51.10
2022-12-17T11:46:41.573Z,43.73
2022-12-17T11:53:03.754Z,44.80
2022-12-17T11:58:36.210Z,45.93
2022-12-17T12:02:04.460Z,48.23
2022-12-17T12:06:40.626Z,43.50
2022-12-17T12:09:50.330Z,40.50
2022-12-17T12:18:58.564Z,42.80
2022-12-17T12:22:01.486Z,49.07
2022-12-17T12:28:09.795Z,42.63
2022-12-17T12:31:27.473Z,46.10
2022-12-17T12:34:18.994Z,38.30
2022-12-17T12:37:05.933Z,45.93
2022-12-17T12:41:44.517Z,48.80
2022-12-17T12:46:15.812Z,44.87
2022-12-17T12:49:15.548Z,41.77
2022-12-17T12:52:00.951Z,44.77
2022-12-17T12:55:09.675Z,46.90
2022-12-17T12:58:48.646Z,59.70
2022-12-17T13:01:34.221Z,52.57
2022-12-17T13:05:00.259Z,58.07
2022-12-17T13:07:29.852Z,56.43
2022-12-17T13:09:58.352Z,57.00
2022-12-17T13:12:39.597Z,50.17
2022-12-17T13:15:27.770Z,58.17
2022-12-17T13:18:32.369Z,54.90
2022-12-17T13:21:22.861Z,53.53
2022-12-17T13:23:49.387Z,54.83
2022-12-17T13:26:43.280Z,55.80
2022-12-17T13:29:35.285Z,52.83
2022-12-17T13:32:32.986Z,55.73
2022-12-17T13:35:41.090Z,51.93
2022-12-17T13:39:07.796Z,57.17
2022-12-17T13:41:37.817Z,51.03
2022-12-17T13:44:37.930Z,53.10
2022-12-17T13:47:04.624Z,45.93
2022-12-17T13:49:32.111Z,52.10
2022-12-17T13:52:16.970Z,48.93
2022-12-17T13:54:43.837Z,41.97
2022-12-17T13:57:31.539Z,31.77
2022-12-17T14:00:01.690Z,33.70
2022-12-17T14:02:35.700Z,32.73
2022-12-17T14:05:17.773Z,31.60
2022-12-17T14:07:44.270Z,34.10
2022-12-17T14:10:18.572Z,32.67
2022-12-17T14:12:46.314Z,31.10
2022-12-17T14:15:27.462Z,31.67
2022-12-17T14:17:56.085Z,32.13
2022-12-17T14:20:28.145Z,32.57
2022-12-17T14:23:28.099Z,31.70
2022-12-17T14:25:55.781Z,31.40
2022-12-17T14:28:30.647Z,38.17
2022-12-17T14:31:28.064Z,37.60
2022-12-17T14:34:12.572Z,39.33
2022-12-17T14:36:42.498Z,40.03
2022-12-17T14:39:30.613Z,34.03
2022-12-17T14:42:31.607Z,32.00
2022-12-17T14:45:21.528Z,34.23
2022-12-17T14:48:15.382Z,38.60
2022-12-17T14:50:41.824Z,45.60
2022-12-17T14:53:26.989Z,38.77
2022-12-17T14:55:58.377Z,36.93
2022-12-17T14:58:26.914Z,34.77
2022-12-17T15:01:11.356Z,25.90
2022-12-17T15:03:42.574Z,30.67
2022-12-17T15:06:17.624Z,34.30
2022-12-17T15:08:48.148Z,40.83
2022-12-17T15:11:21.239Z,37.03
2022-12-17T15:13:51.576Z,32.67
2022-12-17T15:16:22.637Z,27.77
2022-12-17T15:18:49.142Z,34.63
2022-12-17T15:21:17.835Z,38.37
2022-12-17T15:23:46.732Z,33.50
2022-12-17T15:26:14.471Z,41.60
2022-12-17T15:28:45.228Z,38.37
2022-12-17T15:31:14.178Z,39.53
2022-12-17T15:33:42.063Z,39.77
2022-12-17T15:36:11.383Z,38.83
2022-12-17T15:38:38.639Z,39.40
2022-12-17T15:41:24.465Z,30.10
2022-12-17T15:43:51.483Z,32.20
2022-12-17T15:46:18.091Z,35.40
2022-12-17T15:48:49.817Z,41.37
2022-12-17T15:51:19.750Z,43.57
2022-12-17T15:53:47.521Z,33.57
2022-12-17T15:56:26.302Z,40.83
2022-12-17T15:58:55.780Z,37.67
2022-12-17T16:01:22.541Z,37.70
2022-12-17T16:03:49.163Z,44.53
2022-12-17T16:06:16.272Z,46.00
2022-12-17T16:08:42.862Z,44.80
2022-12-17T16:11:12.901Z,38.40
2022-12-17T16:13:39.965Z,45.23
2022-12-17T16:16:07.921Z,48.77
2022-12-17T16:18:37.873Z,38.90
2022-12-17T16:21:07.640Z,35.00
2022-12-17T16:23:34.717Z,40.57
2022-12-17T16:26:04.598Z,48.43
2022-12-17T16:28:31.307Z,41.23
2022-12-17T16:31:12.137Z,42.80
2022-12-17T16:33:41.228Z,42.87
2022-12-17T16:36:11.610Z,42.47
2022-12-17T16:38:45.416Z,38.63
2022-12-17T16:41:13.505Z,41.50
2022-12-17T16:43:40.387Z,38.23
2022-12-17T16:46:28.744Z,36.23
2022-12-17T16:48:58.425Z,38.60
2022-12-17T16:51:29.240Z,37.23
2022-12-17T16:53:58.038Z,38.70
2022-12-17T16:56:28.227Z,32.03
2022-12-17T16:58:56.143Z,28.40
2022-12-17T17:01:28.528Z,31.67
2022-12-17T17:03:56.325Z,30.27
2022-12-17T17:06:26.779Z,29.43
2022-12-17T17:08:56.658Z,25.63
2022-12-17T17:11:25.016Z,20.20
2022-12-17T17:13:53.758Z,20.73
2022-12-17T17:16:23.575Z,18.60
2022-12-17T17:18:51.979Z,24.23
2022-12-17T17:21:40.214Z,24.43
2022-12-17T17:24:16.795Z,28.30
2022-12-17T17:26:47.902Z,28.27
2022-12-17T17:29:14.562Z,31.57
2022-12-17T17:34:39.319Z,30.93
2022-12-17T17:37:06.051Z,32.60
2022-12-17T17:39:33.429Z,38.93
2022-12-17T17:42:00.428Z,43.57
2022-12-17T17:44:26.916Z,41.70
2022-12-17T17:46:53.440Z,41.10
2022-12-17T17:49:19.926Z,36.00
2022-12-17T17:54:42.862Z,33.63
2022-12-17T17:57:10.953Z,31.73
2022-12-17T17:59:38.665Z,31.47
2022-12-17T18:02:05.308Z,34.70
2022-12-17T18:04:32.154Z,38.03
2022-12-17T18:09:55.622Z,39.67
2022-12-17T18:12:40.996Z,36.10
2022-12-17T18:15:17.337Z,29.93
2022-12-17T18:17:49.183Z,27.83
2022-12-17T18:20:16.503Z,27.90
2022-12-17T18:22:45.065Z,30.20
2022-12-17T18:25:11.562Z,25.10
2022-12-17T18:27:38.394Z,28.73
2022-12-17T18:30:05.795Z,28.23
2022-12-17T18:32:32.300Z,30.17
2022-12-17T18:34:59.008Z,26.13
2022-12-17T18:37:25.530Z,25.60
2022-12-17T18:39:52.000Z,29.10
2022-12-17T18:42:36.698Z,25.63
2022-12-17T18:45:03.731Z,26.77
2022-12-17T18:47:30.465Z,22.27
2022-12-17T18:49:57.325Z,25.53
2022-12-17T18:52:24.316Z,28.90
2022-12-17T18:54:50.778Z,28.77
2022-12-17T18:57:17.253Z,30.73
2022-12-17T18:59:43.715Z,29.60
2022-12-17T19:02:12.290Z,23.37
2022-12-17T19:04:39.403Z,34.13
2022-12-17T19:07:06.045Z,31.67
2022-12-17T19:09:34.787Z,29.23
2022-12-17T19:12:06.623Z,31.43
2022-12-17T19:14:33.508Z,29.40
2022-12-17T19:17:00.749Z,33.30
2022-12-17T19:19:27.906Z,32.80
2022-12-17T19:21:55.428Z,28.47
2022-12-17T19:24:22.747Z,36.10
2022-12-17T19:26:50.111Z,32.70
2022-12-17T19:29:18.769Z,35.40
2022-12-17T19:31:45.346Z,29.83
2022-12-17T19:34:16.862Z,30.27
2022-12-17T19:36:44.382Z,32.50
2022-12-17T19:39:17.545Z,40.00
2022-12-17T19:41:44.329Z,38.73
2022-12-17T19:44:14.164Z,29.80
2022-12-17T19:46:42.029Z,28.63
2022-12-17T19:49:11.522Z,27.03
2022-12-17T19:51:43.223Z,22.97
2022-12-17T19:54:14.202Z,35.30
2022-12-17T19:56:42.390Z,30.40
2022-12-17T19:59:11.849Z,30.60
2022-12-17T20:01:45.360Z,32.70
2022-12-17T20:04:14.133Z,27.50
2022-12-17T20:06:41.118Z,38.40
2022-12-17T20:09:07.889Z,24.20
2022-12-17T20:11:35.549Z,23.67
2022-12-17T20:14:20.589Z,23.27
2022-12-17T20:16:56.617Z,20.97
2022-12-17T20:19:31.839Z,21.73
2022-12-17T20:22:00.959Z,19.60
2022-12-17T20:24:31.591Z,18.97
2022-12-17T20:26:59.517Z,32.07
2022-12-17T20:29:26.569Z,26.93
2022-12-17T20:31:54.145Z,29.07
2022-12-17T20:34:21.081Z,23.83
2022-12-17T20:36:47.892Z,25.33
2022-12-17T20:39:14.628Z,28.00
2022-12-17T20:41:41.293Z,20.10
2022-12-17T20:44:14.056Z,20.87
2022-12-17T20:46:41.024Z,18.57
2022-12-17T20:49:08.201Z,29.90
2022-12-17T20:51:34.758Z,19.57
2022-12-17T20:54:02.507Z,32.33
2022-12-17T20:56:32.650Z,23.23
2022-12-17T20:59:04.916Z,17.27
2022-12-17T21:01:35.126Z,23.90
2022-12-17T21:04:03.479Z,16.33
2022-12-17T21:06:36.419Z,19.07
2022-12-17T21:09:04.052Z,18.70
2022-12-17T21:11:32.861Z,17.33
2022-12-17T21:14:07.727Z,14.97
2022-12-17T21:16:35.857Z,14.40
2022-12-17T21:19:05.944Z,13.13
2022-12-17T21:21:36.753Z,13.27
2022-12-17T21:24:04.246Z,15.67
2022-12-17T21:26:41.643Z,11.83
2022-12-17T21:29:09.778Z,12.60
2022-12-17T21:31:44.757Z,14.07
2022-12-17T21:34:21.288Z,16.80
2022-12-17T21:36:49.357Z,16.33
2022-12-17T21:39:17.644Z,18.47
2022-12-17T21:43:00.827Z,14.20
2022-12-17T21:45:35.716Z,19.97
2022-12-17T21:48:04.643Z,15.50
2022-12-17T21:50:42.732Z,18.43
2022-12-17T21:53:11.724Z,17.00
2022-12-17T21:55:38.397Z,23.27
2022-12-17T21:58:05.554Z,26.43
2022-12-17T22:00:32.070Z,25.40
2022-12-17T22:02:58.676Z,32.53
2022-12-17T22:05:25.511Z,26.70
2022-12-17T22:07:52.046Z,26.33
2022-12-17T22:10:41.658Z,30.77
2022-12-17T22:13:28.902Z,23.87
2022-12-17T22:15:55.545Z,24.93
2022-12-17T22:18:22.143Z,20.77
2022-12-17T22:21:00.200Z,21.17
2022-12-17T22:23:26.811Z,31.17
2022-12-17T22:25:53.974Z,22.93
2022-12-17T22:28:20.464Z,22.20
2022-12-17T22:31:05.167Z,20.80
2022-12-17T22:34:13.960Z,37.27
2022-12-17T22:41:55.941Z,29.47
2022-12-17T22:44:43.344Z,20.03
2022-12-17T22:47:17.101Z,16.20
2022-12-17T22:49:44.532Z,22.17
2022-12-17T22:52:11.240Z,17.67
2022-12-17T22:54:37.854Z,20.57
2022-12-17T22:57:34.337Z,19.90
2022-12-17T23:00:16.434Z,31.03
2022-12-17T23:02:43.007Z,19.17
2022-12-17T23:05:09.659Z,20.60
2022-12-17T23:07:36.293Z,18.33
2022-12-17T23:10:04.040Z,22.43
2022-12-17T23:12:48.629Z,18.97
2022-12-17T23:15:15.155Z,23.10
2022-12-17T23:17:41.614Z,20.03
2022-12-17T23:20:09.060Z,16.90
2022-12-17T23:22:35.627Z,20.53
2022-12-17T23:25:02.211Z,16.63
2022-12-17T23:27:28.772Z,20.43
2022-12-17T23:29:55.262Z,16.20
2022-12-17T23:32:21.757Z,18.30
2022-12-17T23:34:48.232Z,18.07
2022-12-17T23:37:14.723Z,16.57
2022-12-17T23:39:41.239Z,15.43
2022-12-17T23:42:07.805Z,14.33
2022-12-17T23:44:34.274Z,14.93
2022-12-17T23:47:00.808Z,13.90
2022-12-17T23:49:27.296Z,17.50
2022-12-17T23:51:53.784Z,13.67
2022-12-17T23:54:20.269Z,12.80
2022-12-17T23:56:46.729Z,15.93
2022-12-17T23:59:13.212Z,16.97
